createdAt,value
2018-05-09T00:00:12.272Z,4.00
2018-05-09T00:01:18.511Z,4.07
2018-05-09T00:02:24.579Z,4.50
2018-05-09T00:03:30.822Z,4.35
2018-05-09T00:04:37.110Z,3.85
2018-05-09T00:05:43.090Z,3.47
2018-05-09T00:06:50.122Z,4.07
2018-05-09T00:07:56.285Z,4.50
2018-05-09T00:09:03.689Z,3.70
2018-05-09T00:10:09.753Z,3.85
2018-05-09T00:11:16.029Z,4.12
2018-05-09T00:12:22.373Z,4.45
2018-05-09T00:13:29.565Z,4.62
2018-05-09T00:14:35.960Z,4.28
2018-05-09T00:15:42.303Z,4.15
2018-05-09T00:16:53.721Z,4.15
2018-05-09T00:18:00.017Z,4.12
2018-05-09T00:19:06.364Z,4.32
2018-05-09T00:20:12.650Z,4.00
2018-05-09T00:21:18.985Z,4.35
2018-05-09T00:22:25.000Z,4.55
2018-05-09T00:23:31.266Z,4.53
2018-05-09T00:24:37.444Z,4.10
2018-05-09T00:25:47.573Z,4.20
2018-05-09T00:26:53.796Z,4.25
2018-05-09T00:28:00.112Z,3.78
2018-05-09T00:29:12.253Z,5.20
2018-05-09T00:30:18.544Z,4.70
2018-05-09T00:31:24.809Z,3.85
2018-05-09T00:32:31.087Z,3.95
2018-05-09T00:33:38.623Z,5.05
2018-05-09T00:34:44.820Z,4.50
2018-05-09T00:35:51.033Z,4.45
2018-05-09T00:36:57.284Z,4.18
2018-05-09T00:38:03.553Z,4.18
2018-05-09T00:39:09.761Z,4.60
2018-05-09T00:40:16.073Z,4.35
2018-05-09T00:41:22.298Z,4.05
2018-05-09T00:42:28.555Z,4.20
2018-05-09T00:43:35.061Z,3.58
2018-05-09T00:44:41.323Z,4.47
2018-05-09T00:45:47.569Z,4.15
2018-05-09T00:46:53.883Z,4.30
2018-05-09T00:48:00.173Z,4.50
2018-05-09T00:49:10.890Z,4.55
2018-05-09T00:50:21.986Z,3.85
2018-05-09T00:51:28.191Z,4.65
2018-05-09T00:52:34.538Z,4.37
2018-05-09T00:53:41.540Z,4.72
2018-05-09T00:54:47.793Z,4.12
2018-05-09T00:55:54.056Z,4.40
2018-05-09T00:57:01.295Z,4.00
2018-05-09T00:58:07.610Z,3.58
2018-05-09T00:59:13.850Z,4.07
2018-05-09T01:00:20.162Z,4.30
2018-05-09T01:01:26.137Z,4.30
2018-05-09T01:02:32.412Z,3.97
2018-05-09T01:03:38.692Z,4.07
2018-05-09T01:04:44.976Z,4.28
2018-05-09T01:05:51.276Z,4.65
2018-05-09T01:06:57.538Z,4.25
2018-05-09T01:08:03.537Z,4.53
2018-05-09T01:09:09.843Z,4.10
2018-05-09T01:10:17.835Z,4.35
2018-05-09T01:11:30.543Z,3.85
2018-05-09T01:12:36.864Z,4.22
2018-05-09T01:13:43.177Z,3.75
2018-05-09T01:14:49.453Z,4.00
2018-05-09T01:15:55.499Z,3.75
2018-05-09T01:17:02.641Z,4.62
2018-05-09T01:18:08.696Z,4.30
2018-05-09T01:19:14.552Z,4.75
2018-05-09T01:20:20.748Z,4.20
2018-05-09T01:21:27.019Z,4.60
2018-05-09T01:22:33.255Z,4.25
2018-05-09T01:23:39.525Z,4.55
2018-05-09T01:24:45.607Z,4.95
2018-05-09T01:25:51.889Z,4.95
2018-05-09T01:26:57.615Z,5.03
2018-05-09T01:28:04.121Z,5.10
2018-05-09T01:29:10.374Z,4.60
2018-05-09T01:30:16.406Z,4.40
2018-05-09T01:31:24.234Z,4.40
2018-05-09T01:32:31.347Z,4.47
2018-05-09T01:33:38.135Z,5.05
2018-05-09T01:34:44.300Z,4.20
2018-05-09T01:35:51.506Z,4.20
2018-05-09T01:36:57.802Z,4.70
2018-05-09T01:38:04.035Z,4.97
2018-05-09T01:39:11.013Z,4.03
2018-05-09T01:40:17.200Z,4.35
2018-05-09T01:41:22.794Z,4.28
2018-05-09T01:42:28.814Z,4.78
2018-05-09T01:43:35.090Z,4.55
2018-05-09T01:44:41.341Z,4.57
2018-05-09T01:45:47.633Z,4.10
2018-05-09T01:46:53.963Z,4.43
2018-05-09T01:48:00.285Z,4.22
2018-05-09T01:49:06.574Z,4.45
2018-05-09T01:50:12.878Z,4.03
2018-05-09T01:51:19.329Z,4.82
2018-05-09T01:52:25.916Z,4.65
2018-05-09T01:53:32.247Z,4.80
2018-05-09T01:54:38.765Z,5.35
2018-05-09T01:55:46.227Z,5.03
2018-05-09T01:56:52.507Z,4.40
2018-05-09T01:57:58.817Z,5.68
2018-05-09T01:59:05.141Z,4.80
2018-05-09T02:00:11.558Z,4.82
2018-05-09T02:01:17.831Z,4.70
2018-05-09T02:02:24.138Z,4.65
2018-05-09T02:03:31.309Z,4.30
2018-05-09T02:04:37.568Z,4.72
2018-05-09T02:05:43.831Z,4.10
2018-05-09T02:06:50.104Z,4.72
2018-05-09T02:07:56.047Z,4.62
2018-05-09T02:09:02.352Z,4.28
2018-05-09T02:10:08.061Z,4.00
2018-05-09T02:11:14.326Z,4.40
2018-05-09T02:12:21.931Z,4.30
2018-05-09T02:13:29.061Z,4.18
2018-05-09T02:14:35.105Z,4.78
2018-05-09T02:15:41.305Z,4.70
2018-05-09T02:16:47.308Z,4.43
2018-05-09T02:17:54.335Z,4.93
2018-05-09T02:19:02.116Z,4.40
2018-05-09T02:20:09.273Z,4.43
2018-05-09T02:21:15.618Z,5.30
2018-05-09T02:22:22.142Z,4.37
2018-05-09T02:23:28.349Z,4.45
2018-05-09T02:24:35.097Z,4.37
2018-05-09T02:25:41.502Z,4.22
2018-05-09T02:26:47.818Z,4.40
2018-05-09T02:27:54.724Z,4.40
2018-05-09T02:29:00.956Z,5.00
2018-05-09T02:30:07.272Z,4.75
2018-05-09T02:31:13.641Z,5.35
2018-05-09T02:32:20.265Z,4.40
2018-05-09T02:33:26.531Z,4.90
2018-05-09T02:34:42.041Z,5.15
2018-05-09T02:35:49.854Z,4.37
2018-05-09T02:36:56.065Z,4.78
2018-05-09T02:38:03.091Z,5.03
2018-05-09T02:39:10.121Z,5.12
2018-05-09T02:40:16.379Z,4.80
2018-05-09T02:41:23.349Z,4.85
2018-05-09T02:42:29.865Z,5.32
2018-05-09T02:43:36.185Z,5.00
2018-05-09T02:44:42.763Z,4.60
2018-05-09T02:45:49.087Z,4.43
2018-05-09T02:46:55.406Z,5.03
2018-05-09T02:48:02.017Z,5.25
2018-05-09T02:49:08.248Z,5.20
2018-05-09T02:50:14.518Z,5.70
2018-05-09T02:51:20.780Z,5.00
2018-05-09T02:52:32.827Z,5.00
2018-05-09T02:53:39.145Z,4.65
2018-05-09T02:54:45.355Z,4.80
2018-05-09T02:55:57.265Z,5.07
2018-05-09T02:57:06.205Z,5.85
2018-05-09T02:58:12.544Z,4.93
2018-05-09T02:59:23.466Z,5.12
2018-05-09T03:00:30.547Z,4.68
2018-05-09T03:01:36.586Z,4.62
2018-05-09T03:02:42.822Z,4.30
2018-05-09T03:03:49.274Z,5.28
2018-05-09T03:04:55.341Z,5.30
2018-05-09T03:06:02.959Z,5.10
2018-05-09T03:07:09.169Z,4.37
2018-05-09T03:08:15.602Z,4.80
2018-05-09T03:09:21.844Z,4.35
2018-05-09T03:10:27.813Z,4.82
2018-05-09T03:11:34.087Z,5.12
2018-05-09T03:12:40.983Z,4.32
2018-05-09T03:13:47.262Z,5.00
2018-05-09T03:14:53.564Z,5.25
2018-05-09T03:15:59.814Z,4.68
2018-05-09T03:17:09.111Z,4.20
2018-05-09T03:18:14.960Z,4.28
2018-05-09T03:19:20.889Z,5.10
2018-05-09T03:20:27.988Z,4.82
2018-05-09T03:21:34.445Z,5.60
2018-05-09T03:22:40.757Z,4.93
2018-05-09T03:23:46.803Z,4.50
2018-05-09T03:24:53.094Z,5.00
2018-05-09T03:25:59.117Z,5.65
2018-05-09T03:27:05.420Z,4.90
2018-05-09T03:28:12.991Z,5.35
2018-05-09T03:29:19.790Z,4.75
2018-05-09T03:30:26.130Z,4.60
2018-05-09T03:31:32.363Z,5.00
2018-05-09T03:32:38.580Z,4.95
2018-05-09T03:33:44.817Z,4.70
2018-05-09T03:34:51.109Z,5.28
2018-05-09T03:36:01.235Z,6.15
2018-05-09T03:37:07.536Z,5.90
2018-05-09T03:38:13.822Z,6.07
2018-05-09T03:39:20.039Z,6.00
2018-05-09T03:40:25.934Z,4.95
2018-05-09T03:41:32.159Z,7.37
2018-05-09T03:42:39.222Z,6.03
2018-05-09T03:43:46.532Z,7.53
2018-05-09T03:44:53.339Z,6.65
2018-05-09T03:45:59.709Z,7.78
2018-05-09T03:47:06.002Z,7.93
2018-05-09T03:48:12.914Z,6.65
2018-05-09T03:49:19.189Z,7.30
2018-05-09T03:50:25.445Z,8.73
2018-05-09T03:51:31.732Z,7.60
2018-05-09T03:52:37.746Z,8.65
2018-05-09T03:53:43.873Z,7.95
2018-05-09T03:54:50.357Z,7.80
2018-05-09T03:55:56.667Z,8.18
2018-05-09T03:57:03.120Z,7.32
2018-05-09T03:58:09.381Z,8.23
2018-05-09T03:59:15.590Z,7.90
2018-05-09T04:00:24.099Z,7.32
2018-05-09T04:03:26.678Z,7.10
2018-05-09T04:04:44.729Z,7.72
2018-05-09T04:06:02.435Z,7.62
2018-05-09T04:07:19.456Z,7.50
2018-05-09T04:08:36.351Z,7.35
2018-05-09T04:09:53.674Z,7.20
2018-05-09T04:11:01.188Z,7.15
2018-05-09T04:12:07.534Z,6.20
2018-05-09T04:13:14.685Z,5.90
2018-05-09T04:14:21.244Z,7.30
2018-05-09T04:15:27.503Z,5.82
2018-05-09T04:16:33.902Z,5.95
2018-05-09T04:17:40.211Z,5.75
2018-05-09T04:18:47.265Z,5.80
2018-05-09T04:19:54.095Z,6.72
2018-05-09T04:21:00.374Z,6.85
2018-05-09T04:22:06.549Z,5.40
2018-05-09T04:23:12.767Z,6.15
2018-05-09T04:24:18.985Z,5.70
2018-05-09T04:25:25.309Z,5.70
2018-05-09T04:26:31.743Z,6.15
2018-05-09T04:27:38.018Z,6.07
2018-05-09T04:28:44.026Z,6.55
2018-05-09T04:29:50.334Z,6.03
2018-05-09T04:30:56.546Z,5.47
2018-05-09T04:32:02.882Z,5.95
2018-05-09T04:33:09.225Z,6.70
2018-05-09T04:34:16.218Z,5.65
2018-05-09T04:35:22.533Z,5.20
2018-05-09T04:36:28.821Z,4.65
2018-05-09T04:37:35.157Z,5.37
2018-05-09T04:38:41.441Z,5.85
2018-05-09T04:39:47.825Z,5.70
2018-05-09T04:41:01.332Z,5.80
2018-05-09T04:42:12.108Z,6.20
2018-05-09T04:43:19.280Z,5.05
2018-05-09T04:44:28.409Z,5.40
2018-05-09T04:45:35.853Z,5.45
2018-05-09T04:46:42.125Z,5.65
2018-05-09T04:47:48.437Z,5.50
2018-05-09T04:48:54.752Z,4.90
2018-05-09T04:50:01.074Z,6.10
2018-05-09T04:51:07.555Z,5.55
2018-05-09T04:52:13.761Z,5.70
2018-05-09T04:53:20.002Z,6.25
2018-05-09T04:54:26.848Z,5.37
2018-05-09T04:55:33.293Z,5.85
2018-05-09T04:56:39.713Z,6.20
2018-05-09T04:57:45.925Z,6.05
2018-05-09T04:58:52.309Z,6.57
2018-05-09T04:59:58.591Z,5.90
2018-05-09T05:01:04.900Z,6.70
2018-05-09T05:02:17.893Z,6.28
2018-05-09T05:03:24.679Z,6.60
2018-05-09T05:04:31.028Z,7.07
2018-05-09T05:05:37.978Z,5.80
2018-05-09T05:06:44.880Z,6.72
2018-05-09T05:07:51.126Z,6.10
2018-05-09T05:08:57.562Z,6.53
2018-05-09T05:10:03.464Z,6.10
2018-05-09T05:11:09.782Z,6.25
2018-05-09T05:12:15.740Z,6.28
2018-05-09T05:13:22.474Z,6.55
2018-05-09T05:14:28.732Z,6.28
2018-05-09T05:15:35.054Z,6.95
2018-05-09T05:16:40.761Z,6.30
2018-05-09T05:17:47.020Z,6.30
2018-05-09T05:18:53.347Z,6.37
2018-05-09T05:19:59.576Z,5.80
2018-05-09T05:21:05.856Z,5.75
2018-05-09T05:22:12.059Z,6.35
2018-05-09T05:23:24.548Z,7.70
2018-05-09T05:24:32.241Z,6.70
2018-05-09T05:25:38.241Z,7.45
2018-05-09T05:26:44.450Z,7.57
2018-05-09T05:27:50.672Z,6.75
2018-05-09T05:28:56.880Z,7.45
2018-05-09T05:30:03.252Z,6.05
2018-05-09T05:31:09.552Z,7.15
2018-05-09T05:32:17.545Z,7.45
2018-05-09T05:33:23.769Z,7.32
2018-05-09T05:34:30.014Z,6.30
2018-05-09T05:35:36.333Z,6.60
2018-05-09T05:36:42.615Z,6.00
2018-05-09T05:37:48.977Z,6.60
2018-05-09T05:38:55.444Z,7.32
2018-05-09T05:40:04.620Z,7.10
2018-05-09T05:41:11.068Z,6.45
2018-05-09T05:42:17.340Z,6.32
2018-05-09T05:43:23.736Z,6.55
2018-05-09T05:44:30.091Z,6.90
2018-05-09T05:45:36.432Z,7.00
2018-05-09T05:46:44.604Z,7.00
2018-05-09T05:47:50.837Z,6.75
2018-05-09T05:48:57.093Z,5.78
2018-05-09T05:50:03.706Z,6.50
2018-05-09T05:51:10.039Z,6.65
2018-05-09T05:52:16.303Z,6.22
2018-05-09T05:53:22.727Z,6.60
2018-05-09T05:54:29.027Z,5.70
2018-05-09T05:55:35.353Z,6.60
2018-05-09T05:56:42.846Z,7.03
2018-05-09T05:57:49.223Z,6.15
2018-05-09T05:58:56.485Z,6.82
2018-05-09T06:00:02.824Z,6.68
2018-05-09T06:01:09.298Z,6.85
2018-05-09T06:02:15.607Z,6.53
2018-05-09T06:03:21.877Z,6.60
2018-05-09T06:04:28.230Z,6.20
2018-05-09T06:05:34.517Z,7.85
2018-05-09T06:06:40.839Z,7.50
2018-05-09T06:07:47.130Z,6.18
2018-05-09T06:08:53.498Z,7.85
2018-05-09T06:09:59.766Z,6.20
2018-05-09T06:11:06.161Z,6.90
2018-05-09T06:12:12.713Z,7.45
2018-05-09T06:13:18.992Z,6.93
2018-05-09T06:14:25.851Z,6.55
2018-05-09T06:15:32.788Z,7.07
2018-05-09T06:16:39.117Z,6.50
2018-05-09T06:17:45.509Z,6.00
2018-05-09T06:18:53.070Z,6.80
2018-05-09T06:19:59.483Z,6.55
2018-05-09T06:21:05.734Z,6.35
2018-05-09T06:22:12.174Z,6.32
2018-05-09T06:23:18.502Z,6.50
2018-05-09T06:24:24.981Z,7.07
2018-05-09T06:25:31.380Z,7.20
2018-05-09T06:26:37.716Z,7.65
2018-05-09T06:27:44.016Z,6.78
2018-05-09T06:28:50.412Z,6.47
2018-05-09T06:29:56.673Z,6.87
2018-05-09T06:31:04.785Z,6.82
2018-05-09T06:32:11.345Z,6.62
2018-05-09T06:33:17.762Z,6.68
2018-05-09T06:34:24.272Z,6.55
2018-05-09T06:35:30.577Z,6.47
2018-05-09T06:36:36.859Z,6.62
2018-05-09T06:37:43.177Z,6.68
2018-05-09T06:38:49.627Z,6.62
2018-05-09T06:39:56.203Z,5.97
2018-05-09T06:41:02.560Z,6.72
2018-05-09T06:42:08.849Z,6.43
2018-05-09T06:43:15.148Z,6.18
2018-05-09T06:44:21.118Z,5.97
2018-05-09T06:45:27.347Z,6.95
2018-05-09T06:46:33.907Z,5.70
2018-05-09T06:47:46.065Z,6.15
2018-05-09T06:48:53.895Z,6.20
2018-05-09T06:50:00.267Z,6.95
2018-05-09T06:51:06.717Z,6.80
2018-05-09T06:52:13.010Z,6.05
2018-05-09T06:53:19.327Z,6.22
2018-05-09T06:54:25.617Z,6.47
2018-05-09T06:55:31.854Z,6.20
2018-05-09T06:56:38.154Z,6.72
2018-05-09T06:57:44.470Z,7.22
2018-05-09T06:58:49.710Z,6.40
2018-05-09T06:59:55.689Z,6.20
2018-05-09T07:01:01.933Z,6.28
2018-05-09T07:02:08.220Z,5.45
2018-05-09T07:03:14.254Z,6.12
2018-05-09T07:04:20.593Z,5.87
2018-05-09T07:05:26.842Z,5.37
2018-05-09T07:06:33.260Z,6.28
2018-05-09T07:07:39.638Z,5.55
2018-05-09T07:08:47.458Z,6.05
2018-05-09T07:09:59.256Z,5.97
2018-05-09T07:11:05.555Z,6.55
2018-05-09T07:12:11.880Z,6.28
2018-05-09T07:13:19.010Z,6.60
2018-05-09T07:14:25.275Z,5.82
2018-05-09T07:15:31.506Z,5.53
2018-05-09T07:16:38.391Z,6.05
2018-05-09T07:17:44.627Z,5.15
2018-05-09T07:18:50.865Z,5.53
2018-05-09T07:19:57.177Z,5.70
2018-05-09T07:21:03.490Z,6.10
2018-05-09T07:22:10.427Z,5.50
2018-05-09T07:23:16.901Z,5.53
2018-05-09T07:24:23.893Z,5.90
2018-05-09T07:25:30.396Z,6.35
2018-05-09T07:26:36.450Z,6.05
2018-05-09T07:27:42.394Z,5.47
2018-05-09T07:28:48.148Z,5.90
2018-05-09T07:29:54.356Z,5.85
2018-05-09T07:31:00.640Z,5.50
2018-05-09T07:32:06.942Z,5.55
2018-05-09T07:33:14.582Z,5.80
2018-05-09T07:34:20.606Z,5.50
2018-05-09T07:35:27.704Z,6.00
2018-05-09T07:36:34.323Z,5.80
2018-05-09T07:37:40.745Z,5.62
2018-05-09T07:38:47.105Z,6.15
2018-05-09T07:39:53.312Z,5.28
2018-05-09T07:41:00.456Z,5.37
2018-05-09T07:42:06.843Z,6.00
2018-05-09T07:43:13.279Z,4.95
2018-05-09T07:44:19.776Z,4.50
2018-05-09T07:45:26.030Z,5.30
2018-05-09T07:46:32.521Z,5.70
2018-05-09T07:47:38.950Z,5.10
2018-05-09T07:48:44.751Z,4.95
2018-05-09T07:49:51.210Z,5.32
2018-05-09T07:50:58.212Z,4.93
2018-05-09T07:52:04.526Z,4.57
2018-05-09T07:53:11.346Z,5.37
2018-05-09T07:54:21.381Z,4.07
2018-05-09T07:55:27.858Z,4.50
2018-05-09T07:56:34.245Z,4.87
2018-05-09T07:57:40.585Z,4.18
2018-05-09T07:58:46.861Z,4.85
2018-05-09T07:59:53.087Z,4.32
2018-05-09T08:00:59.400Z,4.18
2018-05-09T08:02:09.448Z,3.92
2018-05-09T08:03:15.749Z,4.07
2018-05-09T08:04:22.006Z,4.62
2018-05-09T08:05:28.514Z,4.80
2018-05-09T08:06:34.745Z,4.12
2018-05-09T08:07:41.712Z,3.65
2018-05-09T08:08:48.818Z,3.95
2018-05-09T08:09:55.227Z,3.60
2018-05-09T08:11:01.538Z,4.10
2018-05-09T08:12:07.865Z,4.85
2018-05-09T08:13:14.194Z,4.20
2018-05-09T08:14:20.377Z,3.95
2018-05-09T08:15:26.666Z,4.07
2018-05-09T08:16:32.991Z,3.62
2018-05-09T08:17:39.305Z,3.95
2018-05-09T08:18:45.622Z,3.95
2018-05-09T08:19:51.896Z,3.95
2018-05-09T08:20:58.163Z,4.20
2018-05-09T08:22:04.121Z,4.32
2018-05-09T08:23:10.545Z,3.53
2018-05-09T08:24:18.453Z,3.40
2018-05-09T08:25:25.397Z,3.60
2018-05-09T08:26:31.631Z,3.83
2018-05-09T08:27:37.970Z,3.80
2018-05-09T08:28:44.256Z,3.72
2018-05-09T08:29:50.697Z,3.45
2018-05-09T08:30:56.750Z,3.45
2018-05-09T08:32:03.122Z,3.30
2018-05-09T08:33:09.412Z,3.08
2018-05-09T08:34:15.717Z,3.30
2018-05-09T08:35:22.062Z,3.55
2018-05-09T08:36:28.874Z,2.60
2018-05-09T08:37:35.262Z,3.40
2018-05-09T08:38:41.582Z,3.10
2018-05-09T08:39:47.933Z,3.55
2018-05-09T08:40:54.185Z,3.05
2018-05-09T08:42:00.565Z,4.40
2018-05-09T08:43:06.822Z,3.40
2018-05-09T08:44:13.130Z,4.00
2018-05-09T08:45:19.499Z,3.50
2018-05-09T08:46:25.682Z,3.90
2018-05-09T08:47:32.128Z,3.95
2018-05-09T08:48:38.727Z,3.92
2018-05-09T08:49:45.037Z,3.03
2018-05-09T08:50:51.349Z,4.05
2018-05-09T08:51:57.640Z,3.60
2018-05-09T08:53:06.634Z,3.83
2018-05-09T08:54:14.965Z,3.40
2018-05-09T08:55:20.991Z,3.80
2018-05-09T08:56:27.278Z,3.37
2018-05-09T08:57:33.594Z,4.22
2018-05-09T08:58:39.576Z,3.42
2018-05-09T08:59:45.905Z,3.67
2018-05-09T09:00:52.235Z,3.80
2018-05-09T09:01:58.998Z,3.58
2018-05-09T09:03:05.387Z,4.10
2018-05-09T09:04:11.668Z,3.87
2018-05-09T09:05:17.972Z,3.50
2018-05-09T09:06:24.247Z,4.60
2018-05-09T09:07:30.725Z,3.53
2018-05-09T09:08:37.032Z,3.90
2018-05-09T09:09:43.326Z,3.50
2018-05-09T09:10:49.668Z,4.25
2018-05-09T09:11:55.893Z,3.60
2018-05-09T09:13:02.267Z,3.80
2018-05-09T09:14:09.595Z,3.55
2018-05-09T09:15:16.168Z,3.65
2018-05-09T09:16:23.909Z,3.47
2018-05-09T09:17:29.893Z,3.90
2018-05-09T09:18:36.221Z,3.30
2018-05-09T09:19:42.597Z,3.53
2018-05-09T09:20:49.052Z,3.60
2018-05-09T09:21:55.592Z,3.53
2018-05-09T09:23:01.961Z,4.00
2018-05-09T09:24:08.253Z,3.35
2018-05-09T09:25:14.560Z,3.03
2018-05-09T09:26:20.911Z,3.08
2018-05-09T09:27:27.170Z,2.70
2018-05-09T09:28:33.498Z,3.40
2018-05-09T09:29:39.794Z,3.25
2018-05-09T09:30:46.131Z,3.00
2018-05-09T09:31:53.310Z,3.15
2018-05-09T09:33:00.285Z,2.83
2018-05-09T09:34:06.662Z,2.60
2018-05-09T09:35:13.777Z,3.20
2018-05-09T09:36:20.301Z,2.78
2018-05-09T09:37:26.537Z,3.40
2018-05-09T09:38:32.863Z,2.80
2018-05-09T09:39:39.698Z,3.10
2018-05-09T09:40:46.029Z,2.80
2018-05-09T09:41:52.084Z,3.00
2018-05-09T09:42:58.136Z,2.65
2018-05-09T09:44:04.530Z,2.97
2018-05-09T09:45:10.842Z,3.25
2018-05-09T09:46:17.149Z,2.78
2018-05-09T09:47:23.597Z,3.58
2018-05-09T09:48:31.097Z,2.85
2018-05-09T09:49:37.449Z,3.30
2018-05-09T09:50:43.739Z,3.40
2018-05-09T09:51:50.969Z,3.12
2018-05-09T09:52:57.222Z,2.67
2018-05-09T09:54:03.470Z,3.12
2018-05-09T09:55:10.059Z,3.17
2018-05-09T09:56:16.304Z,2.90
2018-05-09T09:57:22.679Z,2.67
2018-05-09T09:58:29.745Z,2.83
2018-05-09T09:59:35.968Z,2.90
2018-05-09T10:00:42.259Z,2.95
2018-05-09T10:01:48.501Z,2.58
2018-05-09T10:02:54.819Z,3.30
2018-05-09T10:04:01.112Z,2.72
2018-05-09T10:05:07.418Z,3.10
2018-05-09T10:06:13.445Z,2.90
2018-05-09T10:07:19.786Z,2.72
2018-05-09T10:08:26.028Z,2.90
2018-05-09T10:09:32.255Z,3.05
2018-05-09T10:10:38.708Z,3.22
2018-05-09T10:11:44.989Z,2.75
2018-05-09T10:12:50.941Z,3.10
2018-05-09T10:13:57.193Z,3.08
2018-05-09T10:15:03.509Z,2.90
2018-05-09T10:16:09.661Z,2.43
2018-05-09T10:17:16.933Z,2.70
2018-05-09T10:18:23.160Z,2.95
2018-05-09T10:19:29.468Z,2.40
2018-05-09T10:20:35.729Z,2.90
2018-05-09T10:21:42.008Z,3.22
2018-05-09T10:22:48.390Z,3.05
2018-05-09T10:23:55.671Z,3.53
2018-05-09T10:25:02.849Z,2.90
2018-05-09T10:26:09.112Z,2.83
2018-05-09T10:27:15.394Z,2.75
2018-05-09T10:28:21.646Z,2.75
2018-05-09T10:29:27.936Z,2.80
2018-05-09T10:30:34.241Z,2.70
2018-05-09T10:31:40.310Z,2.62
2018-05-09T10:32:46.585Z,2.40
2018-05-09T10:33:52.877Z,2.25
2018-05-09T10:34:58.962Z,2.92
2018-05-09T10:36:05.283Z,3.00
2018-05-09T10:37:11.587Z,2.72
2018-05-09T10:38:23.780Z,3.50
2018-05-09T10:39:35.061Z,3.22
2018-05-09T10:40:41.373Z,3.20
2018-05-09T10:41:47.698Z,2.60
2018-05-09T10:42:54.054Z,2.70
2018-05-09T10:44:00.322Z,3.22
2018-05-09T10:45:06.657Z,3.00
2018-05-09T10:46:12.976Z,3.20
2018-05-09T10:47:19.282Z,3.40
2018-05-09T10:48:25.365Z,3.22
2018-05-09T10:49:31.760Z,3.00
2018-05-09T10:50:38.025Z,3.42
2018-05-09T10:51:44.248Z,2.87
2018-05-09T10:52:50.551Z,3.15
2018-05-09T10:53:56.830Z,3.10
2018-05-09T10:55:03.861Z,3.50
2018-05-09T10:56:10.054Z,3.70
2018-05-09T10:57:17.191Z,3.30
2018-05-09T10:58:23.586Z,3.30
2018-05-09T10:59:32.667Z,3.15
2018-05-09T11:00:38.888Z,2.87
2018-05-09T11:01:45.310Z,3.70
2018-05-09T11:02:51.647Z,3.25
2018-05-09T11:03:57.933Z,3.30
2018-05-09T11:05:03.948Z,3.00
2018-05-09T11:06:10.480Z,2.92
2018-05-09T11:07:16.765Z,2.90
2018-05-09T11:08:23.066Z,3.35
2018-05-09T11:09:29.467Z,2.40
2018-05-09T11:10:36.469Z,3.00
2018-05-09T11:11:43.782Z,2.70
2018-05-09T11:12:49.768Z,3.00
2018-05-09T11:14:01.353Z,2.40
2018-05-09T11:15:07.752Z,2.60
2018-05-09T11:16:13.814Z,2.55
2018-05-09T11:17:19.805Z,2.60
2018-05-09T11:18:25.810Z,2.42
2018-05-09T11:19:32.373Z,2.22
2018-05-09T11:20:44.645Z,2.70
2018-05-09T11:21:50.928Z,2.47
2018-05-09T11:22:57.848Z,2.70
2018-05-09T11:24:03.486Z,3.03
2018-05-09T11:25:09.717Z,2.50
2018-05-09T11:26:17.794Z,2.58
2018-05-09T11:27:24.135Z,3.08
2018-05-09T11:28:30.422Z,3.20
2018-05-09T11:29:36.719Z,3.05
2018-05-09T11:30:43.523Z,2.90
2018-05-09T11:31:49.780Z,2.70
2018-05-09T11:32:56.097Z,2.55
2018-05-09T11:34:02.079Z,2.60
2018-05-09T11:35:09.248Z,2.80
2018-05-09T11:36:15.348Z,2.97
2018-05-09T11:37:21.309Z,2.97
2018-05-09T11:38:28.045Z,3.20
2018-05-09T11:39:34.503Z,2.60
2018-05-09T11:40:40.749Z,2.90
2018-05-09T11:41:47.682Z,3.10
2018-05-09T11:42:54.553Z,3.00
2018-05-09T11:44:00.477Z,2.80
2018-05-09T11:45:06.823Z,2.85
2018-05-09T11:46:13.132Z,3.20
2018-05-09T11:47:19.188Z,3.47
2018-05-09T11:48:25.146Z,2.70
2018-05-09T11:49:31.196Z,3.50
2018-05-09T11:50:37.146Z,3.27
2018-05-09T11:51:43.508Z,3.35
2018-05-09T11:52:49.783Z,3.53
2018-05-09T11:53:56.152Z,3.20
2018-05-09T11:55:02.522Z,3.95
2018-05-09T11:56:08.821Z,3.72
2018-05-09T11:57:15.190Z,3.65
2018-05-09T11:58:22.369Z,3.62
2018-05-09T11:59:28.667Z,3.87
2018-05-09T12:00:34.718Z,3.40
2018-05-09T12:01:40.981Z,3.78
2018-05-09T12:02:47.346Z,3.97
2018-05-09T12:03:53.347Z,3.37
2018-05-09T12:04:59.329Z,3.47
2018-05-09T12:06:05.243Z,4.23
2018-05-09T12:07:10.988Z,3.50
2018-05-09T12:08:17.185Z,3.53
2018-05-09T12:09:24.255Z,3.42
2018-05-09T12:10:30.594Z,3.53
2018-05-09T12:11:37.098Z,4.07
2018-05-09T12:12:43.965Z,4.43
2018-05-09T12:13:50.858Z,3.62
2018-05-09T12:14:57.142Z,4.43
2018-05-09T12:16:03.221Z,4.30
2018-05-09T12:17:09.473Z,3.50
2018-05-09T12:18:15.799Z,3.70
2018-05-09T12:19:22.206Z,3.05
2018-05-09T12:20:28.970Z,3.62
2018-05-09T12:21:35.266Z,3.95
2018-05-09T12:22:42.776Z,3.73
2018-05-09T12:23:49.110Z,4.10
2018-05-09T12:24:55.389Z,3.50
2018-05-09T12:26:01.704Z,3.40
2018-05-09T12:27:08.012Z,3.78
2018-05-09T12:28:14.706Z,3.90
2018-05-09T12:29:24.123Z,3.58
2018-05-09T12:30:30.180Z,3.43
2018-05-09T12:31:36.676Z,3.20
2018-05-09T12:32:42.991Z,3.20
2018-05-09T12:33:49.213Z,3.70
2018-05-09T12:34:55.168Z,3.90
2018-05-09T12:36:01.512Z,3.20
2018-05-09T12:37:07.575Z,3.37
2018-05-09T12:38:13.942Z,3.10
2018-05-09T12:39:19.912Z,3.30
2018-05-09T12:40:26.253Z,3.40
2018-05-09T12:41:32.689Z,3.53
2018-05-09T12:42:38.966Z,3.17
2018-05-09T12:43:46.328Z,3.28
2018-05-09T12:44:52.558Z,3.15
2018-05-09T12:45:58.951Z,3.08
2018-05-09T12:47:04.881Z,3.03
2018-05-09T12:48:10.961Z,2.93
2018-05-09T12:49:17.643Z,2.80
2018-05-09T12:50:24.372Z,3.33
2018-05-09T12:51:30.654Z,3.35
2018-05-09T12:52:36.611Z,3.27
2018-05-09T12:53:42.624Z,3.03
2018-05-09T12:54:49.414Z,3.10
2018-05-09T12:55:55.701Z,2.95
2018-05-09T12:57:01.713Z,2.50
2018-05-09T12:58:08.069Z,2.40
2018-05-09T12:59:14.041Z,2.73
2018-05-09T13:00:20.368Z,3.28
2018-05-09T13:01:26.066Z,3.10
2018-05-09T13:02:33.711Z,2.70
2018-05-09T13:03:42.233Z,2.43
2018-05-09T13:04:50.355Z,2.80
2018-05-09T13:05:56.961Z,2.67
2018-05-09T13:07:02.953Z,2.50
2018-05-09T13:08:09.406Z,2.80
2018-05-09T13:09:15.495Z,2.33
2018-05-09T13:10:21.745Z,2.40
2018-05-09T13:11:27.771Z,1.90
2018-05-09T13:12:33.806Z,3.03
2018-05-09T13:13:39.810Z,2.40
2018-05-09T13:14:46.069Z,2.40
2018-05-09T13:15:52.093Z,2.60
2018-05-09T13:16:58.518Z,2.28
2018-05-09T13:18:04.563Z,2.60
2018-05-09T13:19:10.900Z,2.35
2018-05-09T13:20:16.896Z,2.30
2018-05-09T13:21:24.263Z,2.10
2018-05-09T13:22:30.392Z,2.13
2018-05-09T13:23:36.516Z,1.83
2018-05-09T13:24:42.285Z,1.87
2018-05-09T13:25:48.604Z,1.62
2018-05-09T13:26:54.851Z,2.30
2018-05-09T13:28:01.105Z,2.45
2018-05-09T13:29:07.155Z,2.33
2018-05-09T13:30:13.248Z,1.90
2018-05-09T13:31:19.234Z,2.20
2018-05-09T13:32:25.552Z,2.15
2018-05-09T13:33:31.681Z,2.20
2018-05-09T13:34:38.107Z,2.10
2018-05-09T13:35:44.596Z,1.83
2018-05-09T13:36:50.877Z,2.00
2018-05-09T13:37:56.914Z,2.33
2018-05-09T13:39:03.465Z,2.28
2018-05-09T13:40:09.174Z,1.97
2018-05-09T13:41:15.794Z,1.87
2018-05-09T13:42:23.010Z,2.20
2018-05-09T13:43:29.422Z,2.12
2018-05-09T13:44:35.729Z,2.20
2018-05-09T13:45:41.996Z,1.90
2018-05-09T13:46:48.314Z,2.30
2018-05-09T13:47:58.142Z,2.72
2018-05-09T13:49:04.293Z,2.83
2018-05-09T13:50:10.369Z,2.77
2018-05-09T13:51:16.637Z,2.20
2018-05-09T13:52:22.681Z,2.80
2018-05-09T13:53:28.675Z,2.80
2018-05-09T13:54:34.718Z,2.17
2018-05-09T13:55:40.806Z,2.63
2018-05-09T13:56:46.846Z,2.53
2018-05-09T13:57:53.455Z,2.00
2018-05-09T13:58:59.434Z,2.77
2018-05-09T14:00:05.082Z,2.33
2018-05-09T14:01:11.417Z,2.43
2018-05-09T14:02:17.412Z,2.47
2018-05-09T14:03:24.140Z,2.73
2018-05-09T14:04:30.198Z,2.40
2018-05-09T14:05:36.580Z,3.30
2018-05-09T14:06:42.261Z,2.80
2018-05-09T14:07:55.486Z,2.60
2018-05-09T14:09:02.257Z,2.57
2018-05-09T14:10:08.254Z,2.67
2018-05-09T14:11:14.286Z,2.33
2018-05-09T14:12:20.238Z,2.90
2018-05-09T14:13:26.877Z,3.10
2018-05-09T14:14:32.884Z,3.00
2018-05-09T14:15:39.237Z,2.53
2018-05-09T14:16:45.413Z,2.73
2018-05-09T14:17:51.393Z,2.50
2018-05-09T14:18:57.178Z,2.80
2018-05-09T14:20:03.250Z,2.50
2018-05-09T14:21:09.245Z,2.50
2018-05-09T14:22:15.724Z,3.13
2018-05-09T14:23:21.753Z,2.93
2018-05-09T14:24:28.107Z,2.60
2018-05-09T14:25:34.362Z,2.70
2018-05-09T14:26:40.421Z,3.30
2018-05-09T14:27:46.417Z,2.43
2018-05-09T14:30:07.024Z,3.20
2018-05-09T14:31:13.295Z,2.47
2018-05-09T14:32:19.411Z,2.57
2018-05-09T14:33:25.622Z,2.30
2018-05-09T14:34:32.662Z,2.53
2018-05-09T14:35:38.756Z,2.50
2018-05-09T14:36:44.748Z,2.57
2018-05-09T14:37:50.803Z,2.33
2018-05-09T14:38:56.759Z,2.70
2018-05-09T14:40:02.874Z,2.63
2018-05-09T14:41:09.166Z,2.80
2018-05-09T14:42:15.221Z,2.70
2018-05-09T14:43:21.237Z,2.33
2018-05-09T14:44:28.128Z,2.20
2018-05-09T14:45:34.121Z,2.43
2018-05-09T14:46:40.049Z,2.10
2018-05-09T14:47:46.463Z,2.55
2018-05-09T14:48:53.337Z,2.23
2018-05-09T14:50:01.739Z,2.28